Time;durP1;ratioP1;P1;durP2;ratioP2;P2;SDS_P1;SDS_P2;PMS_P1;PMS_P2;Temp;Humidity;BMP_temperature;BMP_pressure;BME280_temperature;BME280_humidity;BME280_pressure;Samples;Min_cycle;Max_cycle;Signal;HPM_P1;HPM_P2
2022/01/19 00:02:35;;;;;;;;;;;20.70;39.70;;;;;;6333399;27;19935;-44
2022/01/19 00:05:36;;;;;;;;;;;21.20;39.30;;;;;;6333457;28;19935;-46
2022/01/19 00:08:38;;;;;;;;;;;21.30;39.50;;;;;;6331026;28;19990;-41
2022/01/19 00:11:39;;;;;;;;;;;20.70;39.70;;;;;;6331806;28;20051;-44
2022/01/19 00:14:41;;;;;;;;;;;20.80;39.30;;;;;;6332224;28;19931;-43
2022/01/19 00:17:42;;;;;;;;;;;21.60;39.40;;;;;;6328573;27;19999;-42
2022/01/19 00:20:44;;;;;;;;;;;21.00;39.10;;;;;;6332243;28;19928;-41
2022/01/19 00:23:45;;;;;;;;;;;20.90;39.30;;;;;;6313180;28;19979;-41
2022/01/19 00:26:47;;;;;;;;;;;21.20;39.50;;;;;;6324305;28;19934;-42
2022/01/19 00:29:49;;;;;;;;;;;21.10;39.40;;;;;;6327333;28;19927;-42
2022/01/19 00:32:50;;;;;;;;;;;20.80;39.20;;;;;;6300058;28;19932;-44
2022/01/19 00:35:51;;;;;;;;;;;21.00;39.40;;;;;;6326078;28;19931;-41
2022/01/19 00:38:53;;;;;;;;;;;21.00;39.30;;;;;;6322070;28;19932;-42
2022/01/19 00:41:55;;;;;;;;;;;21.80;39.80;;;;;;6323282;28;20019;-41
2022/01/19 00:44:58;;;;;;;;;;;20.90;39.20;;;;;;6328345;27;20046;-44
2022/01/19 00:48:00;;;;;;;;;;;21.10;39.40;;;;;;6313170;28;19927;-46
2022/01/19 00:51:01;;;;;;;;;;;20.90;39.40;;;;;;6333094;28;19931;-44
2022/01/19 00:54:03;;;;;;;;;;;20.70;39.30;;;;;;6334324;28;19935;-42
2022/01/19 00:57:05;;;;;;;;;;;21.10;39.50;;;;;;6334944;28;20485;-48
2022/01/19 01:00:08;;;;;;;;;;;20.90;39.40;;;;;;6336198;28;20027;-43
2022/01/19 01:03:10;;;;;;;;;;;21.00;39.30;;;;;;6335141;28;19945;-46
2022/01/19 01:06:11;;;;;;;;;;;20.80;39.30;;;;;;6336708;27;20302;-43
2022/01/19 01:09:13;;;;;;;;;;;21.20;39.60;;;;;;6335413;28;19984;-44
2022/01/19 01:12:21;;;;;;;;;;;21.10;39.60;;;;;;6339538;28;20743;-44
2022/01/19 01:15:47;;;;;;;;;;;21.20;39.50;;;;;;6320530;28;20428;-44
2022/01/19 01:18:48;;;;;;;;;;;20.90;39.40;;;;;;6323058;28;19965;-46
2022/01/19 01:21:49;;;;;;;;;;;21.30;39.50;;;;;;6334404;27;24367;-42
2022/01/19 01:24:51;;;;;;;;;;;20.80;39.40;;;;;;6331855;28;20665;-44
2022/01/19 01:27:53;;;;;;;;;;;20.80;39.30;;;;;;6323889;28;19931;-41
2022/01/19 01:30:55;;;;;;;;;;;20.90;39.50;;;;;;6339993;28;19928;-41
2022/01/19 01:33:57;;;;;;;;;;;21.20;39.50;;;;;;6338391;28;19931;-42
2022/01/19 01:36:59;;;;;;;;;;;20.70;39.40;;;;;;6337819;28;19934;-48
2022/01/19 01:40:02;;;;;;;;;;;20.70;39.40;;;;;;6340682;28;19980;-44
2022/01/19 01:43:04;;;;;;;;;;;21.30;39.50;;;;;;6319235;28;20419;-43
2022/01/19 01:46:11;;;;;;;;;;;21.60;39.70;;;;;;6322042;28;19927;-42
2022/01/19 01:49:19;;;;;;;;;;;20.80;39.20;;;;;;6336905;28;19945;-44
2022/01/19 01:55:35;;;;;;;;;;;21.00;39.30;;;;;;6339468;27;20505;-41
2022/01/19 01:58:38;;;;;;;;;;;20.80;39.30;;;;;;6340121;28;19927;-43
2022/01/19 02:01:55;;;;;;;;;;;21.20;39.40;;;;;;6338438;28;19927;-41
2022/01/19 02:04:57;;;;;;;;;;;21.00;39.50;;;;;;6317470;28;20339;-42
2022/01/19 02:08:05;;;;;;;;;;;20.80;39.50;;;;;;6319175;28;19932;-41
2022/01/19 02:11:34;;;;;;;;;;;21.00;39.20;;;;;;6325575;28;19928;-41
2022/01/19 02:24:21;;;;;;;;;;;21.00;39.40;;;;;;6305135;27;20236;-40
2022/01/19 02:40:26;;;;;;;;;;;21.00;39.60;;;;;;6329471;28;19927;-41
2022/01/19 02:43:29;;;;;;;;;;;20.90;39.50;;;;;;6331071;28;20562;-40
2022/01/19 02:46:52;;;;;;;;;;;21.20;39.60;;;;;;6328113;28;19938;-41
2022/01/19 02:49:54;;;;;;;;;;;20.80;39.50;;;;;;6330816;28;20109;-41
2022/01/19 02:52:56;;;;;;;;;;;21.00;39.40;;;;;;6330706;28;20581;-40
2022/01/19 02:55:57;;;;;;;;;;;20.60;39.40;;;;;;6328766;28;19931;-41
2022/01/19 02:59:10;;;;;;;;;;;21.20;39.80;;;;;;6332367;28;19993;-40
2022/01/19 03:08:44;;;;;;;;;;;20.90;39.60;;;;;;6329600;28;19932;-40
2022/01/19 03:11:46;;;;;;;;;;;20.60;39.50;;;;;;6331161;28;20287;-41
2022/01/19 03:14:48;;;;;;;;;;;20.80;39.60;;;;;;6329171;28;19932;-40
2022/01/19 03:17:50;;;;;;;;;;;21.00;39.40;;;;;;6325729;28;19934;-42
2022/01/19 03:20:51;;;;;;;;;;;20.60;39.50;;;;;;6328344;27;19928;-39
2022/01/19 03:23:53;;;;;;;;;;;20.60;39.50;;;;;;6326558;28;20218;-40
2022/01/19 03:26:55;;;;;;;;;;;21.10;39.90;;;;;;6327511;28;19927;-40
2022/01/19 03:29:59;;;;;;;;;;;20.70;39.70;;;;;;6335239;27;19927;-47
2022/01/19 03:33:00;;;;;;;;;;;20.70;39.70;;;;;;6329190;27;20483;-39
2022/01/19 03:36:02;;;;;;;;;;;20.60;39.50;;;;;;6325175;28;19927;-40
2022/01/19 03:39:05;;;;;;;;;;;20.80;39.70;;;;;;6326417;28;20150;-41
2022/01/19 03:42:07;;;;;;;;;;;20.70;39.60;;;;;;6310543;28;19927;-40
2022/01/19 03:45:10;;;;;;;;;;;20.40;39.30;;;;;;6326544;27;19927;-41
2022/01/19 03:48:27;;;;;;;;;;;21.40;39.90;;;;;;6313973;28;20042;-40
2022/01/19 03:51:28;;;;;;;;;;;20.80;39.60;;;;;;6316214;28;19939;-41
2022/01/19 03:54:32;;;;;;;;;;;20.90;39.80;;;;;;6329933;28;20713;-40
2022/01/19 03:57:33;;;;;;;;;;;20.50;39.40;;;;;;6327550;28;19927;-39
2022/01/19 04:00:40;;;;;;;;;;;20.50;39.50;;;;;;6310642;28;19990;-40
2022/01/19 04:04:04;;;;;;;;;;;20.70;39.70;;;;;;6327829;28;20394;-40
2022/01/19 04:07:09;;;;;;;;;;;20.50;39.50;;;;;;6327533;28;19932;-40
2022/01/19 04:10:14;;;;;;;;;;;20.70;39.80;;;;;;6315515;28;19927;-39
2022/01/19 04:13:30;;;;;;;;;;;20.60;39.80;;;;;;6326949;28;19956;-40
2022/01/19 04:16:32;;;;;;;;;;;20.80;39.70;;;;;;6331617;28;20877;-44
2022/01/19 04:19:42;;;;;;;;;;;21.30;40.00;;;;;;6336276;27;19935;-44
2022/01/19 04:22:55;;;;;;;;;;;20.60;39.70;;;;;;6343240;28;19927;-43
2022/01/19 04:25:57;;;;;;;;;;;20.50;39.60;;;;;;6329950;28;20348;-40
2022/01/19 04:29:00;;;;;;;;;;;20.80;39.90;;;;;;6333156;28;19986;-44
2022/01/19 04:32:09;;;;;;;;;;;20.60;39.80;;;;;;6340558;28;19946;-43
2022/01/19 04:35:13;;;;;;;;;;;20.90;39.90;;;;;;6340824;28;19931;-44
2022/01/19 04:38:59;;;;;;;;;;;20.60;39.70;;;;;;6341351;27;20359;-40
2022/01/19 04:48:47;;;;;;;;;;;20.60;39.70;;;;;;6312288;28;19938;-42
2022/01/19 05:01:45;;;;;;;;;;;20.90;39.80;;;;;;6338061;28;19939;-45
2022/01/19 05:05:10;;;;;;;;;;;20.50;39.70;;;;;;6339847;28;19959;-43
2022/01/19 05:08:23;;;;;;;;;;;20.50;39.70;;;;;;6330331;28;19935;-42
2022/01/19 05:14:44;;;;;;;;;;;20.70;39.80;;;;;;6336341;28;19934;-44
2022/01/19 05:17:46;;;;;;;;;;;20.40;39.80;;;;;;6333827;28;19927;-40
2022/01/19 05:20:48;;;;;;;;;;;20.80;39.90;;;;;;6330797;28;19938;-41
2022/01/19 05:24:09;;;;;;;;;;;20.60;39.80;;;;;;6332495;27;19938;-43
2022/01/19 05:27:13;;;;;;;;;;;20.90;40.10;;;;;;6335395;28;19924;-44
2022/01/19 05:30:17;;;;;;;;;;;20.60;40.00;;;;;;6335399;27;20446;-41
2022/01/19 05:33:18;;;;;;;;;;;20.40;39.80;;;;;;6304668;28;19934;-41
2022/01/19 05:36:20;;;;;;;;;;;20.40;39.80;;;;;;6326531;28;19992;-39
2022/01/19 05:39:41;;;;;;;;;;;20.80;39.90;;;;;;6326486;28;19942;-40
2022/01/19 05:42:56;;;;;;;;;;;20.60;39.90;;;;;;6324125;27;20877;-41
2022/01/19 05:45:57;;;;;;;;;;;20.90;40.10;;;;;;6332636;28;20030;-43
2022/01/19 05:48:59;;;;;;;;;;;20.50;39.90;;;;;;6333721;28;19935;-46
2022/01/19 05:52:00;;;;;;;;;;;20.60;39.90;;;;;;6336029;28;20054;-47
2022/01/19 05:55:02;;;;;;;;;;;21.00;40.10;;;;;;6332656;27;19966;-43
2022/01/19 05:58:03;;;;;;;;;;;20.90;40.00;;;;;;6327580;27;20566;-45
2022/01/19 06:01:06;;;;;;;;;;;20.60;40.00;;;;;;6333256;28;20762;-41
2022/01/19 06:04:09;;;;;;;;;;;20.40;39.80;;;;;;6331728;28;20042;-44
2022/01/19 06:07:28;;;;;;;;;;;20.50;39.90;;;;;;6329646;28;19931;-46
2022/01/19 06:13:51;;;;;;;;;;;20.50;39.90;;;;;;6300299;28;19938;-45
2022/01/19 06:16:54;;;;;;;;;;;20.50;39.90;;;;;;6320807;27;19938;-44
2022/01/19 06:19:55;;;;;;;;;;;20.40;39.70;;;;;;6332323;28;20569;-46
2022/01/19 06:22:57;;;;;;;;;;;20.80;40.00;;;;;;6331685;28;19934;-45
2022/01/19 06:25:59;;;;;;;;;;;20.90;39.90;;;;;;6330256;28;19934;-48
2022/01/19 06:29:03;;;;;;;;;;;20.70;40.00;;;;;;6329487;28;19934;-41
2022/01/19 06:32:05;;;;;;;;;;;20.80;39.80;;;;;;6270422;28;20007;-45
2022/01/19 06:35:07;;;;;;;;;;;20.40;39.80;;;;;;6271578;28;19928;-43
2022/01/19 06:38:21;;;;;;;;;;;20.40;39.80;;;;;;6272612;28;20031;-47
2022/01/19 06:41:27;;;;;;;;;;;20.40;39.90;;;;;;6276801;28;19928;-43
2022/01/19 06:44:28;;;;;;;;;;;20.60;40.00;;;;;;6270395;28;19932;-44
2022/01/19 06:47:30;;;;;;;;;;;20.90;40.30;;;;;;6271580;28;19999;-45
2022/01/19 06:50:32;;;;;;;;;;;20.50;39.70;;;;;;6270380;28;19938;-44
2022/01/19 06:53:34;;;;;;;;;;;20.80;40.00;;;;;;6268059;28;19960;-41
2022/01/19 06:56:42;;;;;;;;;;;20.80;39.80;;;;;;6270975;28;20009;-44
2022/01/19 06:59:59;;;;;;;;;;;20.70;39.80;;;;;;6258624;28;19932;-47
2022/01/19 07:03:17;;;;;;;;;;;20.50;39.60;;;;;;6282925;28;19931;-43
2022/01/19 07:06:22;;;;;;;;;;;20.60;39.50;;;;;;6302921;28;20764;-44
2022/01/19 07:09:34;;;;;;;;;;;20.90;39.70;;;;;;6305479;27;19927;-44
2022/01/19 07:12:35;;;;;;;;;;;21.00;39.70;;;;;;6302033;28;19923;-45
2022/01/19 07:15:40;;;;;;;;;;;20.80;39.50;;;;;;6299489;28;19939;-46
2022/01/19 07:18:43;;;;;;;;;;;20.70;39.40;;;;;;6293236;27;20826;-46
2022/01/19 07:21:45;;;;;;;;;;;20.90;39.40;;;;;;6284329;27;19931;-45
2022/01/19 07:24:47;;;;;;;;;;;20.80;39.30;;;;;;6298357;27;19967;-43
2022/01/19 07:27:48;;;;;;;;;;;21.20;39.20;;;;;;6289087;27;19981;-44
2022/01/19 07:30:50;;;;;;;;;;;20.80;39.20;;;;;;6295936;27;20057;-46
2022/01/19 07:33:52;;;;;;;;;;;20.60;39.10;;;;;;6284423;27;19938;-47
2022/01/19 07:36:53;;;;;;;;;;;20.90;39.10;;;;;;6271983;27;19939;-45
2022/01/19 07:39:57;;;;;;;;;;;20.90;39.10;;;;;;6249891;27;19967;-42
2022/01/19 07:42:59;;;;;;;;;;;21.60;39.50;;;;;;6268783;27;19952;-46
2022/01/19 07:46:20;;;;;;;;;;;20.90;39.00;;;;;;6276968;27;19932;-46
2022/01/19 07:49:38;;;;;;;;;;;21.10;39.00;;;;;;6267119;27;19943;-44
2022/01/19 07:52:54;;;;;;;;;;;21.50;39.00;;;;;;6263406;27;19937;-46
2022/01/19 07:56:02;;;;;;;;;;;21.20;38.90;;;;;;6260053;27;20042;-46
2022/01/19 07:59:14;;;;;;;;;;;21.00;38.80;;;;;;6247261;27;21218;-44
2022/01/19 08:02:30;;;;;;;;;;;21.50;39.10;;;;;;6229802;27;19966;-42
2022/01/19 08:05:44;;;;;;;;;;;21.10;38.70;;;;;;6232025;27;20053;-47
2022/01/19 08:08:46;;;;;;;;;;;21.10;38.70;;;;;;6233815;27;19938;-45
2022/01/19 08:11:49;;;;;;;;;;;21.70;38.70;;;;;;6231251;27;21858;-42
2022/01/19 08:14:59;;;;;;;;;;;21.60;38.80;;;;;;6217787;27;19932;-42
2022/01/19 08:18:06;;;;;;;;;;;21.30;38.90;;;;;;6205004;27;19931;-45
2022/01/19 08:21:08;;;;;;;;;;;21.60;38.80;;;;;;6224247;27;19932;-44
2022/01/19 08:24:20;;;;;;;;;;;21.30;38.60;;;;;;6217337;27;27595;-47
2022/01/19 08:27:24;;;;;;;;;;;21.70;38.70;;;;;;6218328;27;21871;-45
2022/01/19 08:30:29;;;;;;;;;;;22.40;39.00;;;;;;6196731;27;19938;-45
2022/01/19 08:33:30;;;;;;;;;;;21.50;38.60;;;;;;6177007;27;20005;-44
2022/01/19 08:36:37;;;;;;;;;;;21.90;38.80;;;;;;6181758;27;20000;-43
2022/01/19 08:39:45;;;;;;;;;;;21.20;38.20;;;;;;6198806;27;19931;-40
2022/01/19 08:42:48;;;;;;;;;;;21.20;38.90;;;;;;6203159;27;19931;-43
2022/01/19 08:45:49;;;;;;;;;;;21.90;38.60;;;;;;6195551;27;21400;-44
2022/01/19 08:48:54;;;;;;;;;;;22.10;38.60;;;;;;6191384;27;19938;-44
2022/01/19 08:52:16;;;;;;;;;;;21.90;38.50;;;;;;6192283;27;19939;-48
2022/01/19 08:55:22;;;;;;;;;;;21.60;38.10;;;;;;6203213;27;21382;-43
2022/01/19 08:58:24;;;;;;;;;;;22.10;38.30;;;;;;6198701;27;19931;-47
2022/01/19 09:01:25;;;;;;;;;;;21.50;38.00;;;;;;6191663;27;19932;-46
2022/01/19 09:04:27;;;;;;;;;;;21.90;38.10;;;;;;6183455;27;19974;-46
2022/01/19 09:07:29;;;;;;;;;;;22.10;38.10;;;;;;6185061;27;19938;-44
2022/01/19 09:10:30;;;;;;;;;;;21.90;37.90;;;;;;6188278;27;19931;-44
2022/01/19 09:13:37;;;;;;;;;;;21.80;37.90;;;;;;6199542;27;20832;-44
2022/01/19 09:16:38;;;;;;;;;;;22.30;38.00;;;;;;6212987;27;19935;-46
2022/01/19 09:19:40;;;;;;;;;;;22.00;37.80;;;;;;6192227;27;20074;-46
2022/01/19 09:22:42;;;;;;;;;;;22.30;37.90;;;;;;6200614;27;19931;-46
2022/01/19 09:25:43;;;;;;;;;;;22.40;38.00;;;;;;6204623;27;20803;-45
2022/01/19 09:28:45;;;;;;;;;;;22.50;38.00;;;;;;6204570;27;26859;-43
2022/01/19 09:32:08;;;;;;;;;;;22.30;37.80;;;;;;6197932;27;20058;-46
2022/01/19 09:35:10;;;;;;;;;;;22.10;37.60;;;;;;6203563;27;19939;-46
2022/01/19 09:38:12;;;;;;;;;;;22.20;37.80;;;;;;6204070;27;19974;-45
2022/01/19 09:41:13;;;;;;;;;;;22.30;37.70;;;;;;6219980;27;20066;-45
2022/01/19 09:44:15;;;;;;;;;;;22.30;37.70;;;;;;6208942;27;19931;-46
2022/01/19 09:47:16;;;;;;;;;;;22.10;37.60;;;;;;6214772;27;19976;-48
2022/01/19 09:50:18;;;;;;;;;;;22.10;37.60;;;;;;6214221;27;20063;-44
2022/01/19 09:53:20;;;;;;;;;;;22.50;37.70;;;;;;6225365;27;21400;-43
2022/01/19 09:56:22;;;;;;;;;;;22.60;37.60;;;;;;6198687;27;20233;-47
2022/01/19 09:59:24;;;;;;;;;;;22.50;37.60;;;;;;6217214;27;20054;-49
2022/01/19 10:02:25;;;;;;;;;;;22.70;37.60;;;;;;6220973;27;21414;-47
2022/01/19 10:05:31;;;;;;;;;;;22.60;37.60;;;;;;6244538;27;19931;-50
2022/01/19 10:08:34;;;;;;;;;;;22.50;37.50;;;;;;6207283;27;19935;-45
2022/01/19 10:18:12;;;;;;;;;;;22.50;37.40;;;;;;6215492;27;19932;-48
2022/01/19 10:21:16;;;;;;;;;;;23.10;37.60;;;;;;6214266;27;19931;-47
2022/01/19 10:24:18;;;;;;;;;;;22.60;37.30;;;;;;6225535;27;19935;-44
2022/01/19 10:27:22;;;;;;;;;;;22.90;37.50;;;;;;6210593;27;19931;-44
2022/01/19 10:30:25;;;;;;;;;;;22.60;37.30;;;;;;6212012;27;20015;-44
2022/01/19 10:33:26;;;;;;;;;;;22.60;37.30;;;;;;6226303;27;20895;-43
2022/01/19 10:36:40;;;;;;;;;;;22.70;37.30;;;;;;6217361;27;19938;-46
2022/01/19 10:39:43;;;;;;;;;;;22.60;37.30;;;;;;6203491;27;20182;-46
2022/01/19 10:42:44;;;;;;;;;;;22.80;37.40;;;;;;6201253;27;20054;-46
2022/01/19 10:45:46;;;;;;;;;;;22.60;37.20;;;;;;6221276;27;19931;-46
2022/01/19 10:48:47;;;;;;;;;;;22.80;37.40;;;;;;6212591;27;19939;-47
2022/01/19 10:51:55;;;;;;;;;;;22.70;37.30;;;;;;6194946;27;19932;-44
2022/01/19 10:54:58;;;;;;;;;;;23.10;38.10;;;;;;6224426;27;20046;-45
2022/01/19 10:58:00;;;;;;;;;;;23.00;37.30;;;;;;6195247;27;19971;-47
2022/01/19 11:01:02;;;;;;;;;;;22.50;37.10;;;;;;6210463;27;19987;-45
2022/01/19 11:04:14;;;;;;;;;;;22.80;37.20;;;;;;6218617;27;19937;-48
2022/01/19 11:07:19;;;;;;;;;;;22.80;37.20;;;;;;6226200;27;20426;-46
2022/01/19 11:10:22;;;;;;;;;;;23.30;37.50;;;;;;6220053;27;20918;-43
2022/01/19 11:13:28;;;;;;;;;;;23.00;37.20;;;;;;6225125;27;20119;-43
2022/01/19 11:16:33;;;;;;;;;;;22.70;37.20;;;;;;6222054;27;19931;-48
2022/01/19 11:19:36;;;;;;;;;;;23.00;37.30;;;;;;6231212;27;20715;-44
2022/01/19 11:22:52;;;;;;;;;;;22.70;37.00;;;;;;6218975;27;19931;-46
2022/01/19 11:25:57;;;;;;;;;;;22.70;36.90;;;;;;6222026;27;19932;-45
2022/01/19 11:29:12;;;;;;;;;;;22.90;37.10;;;;;;6246090;27;19931;-49
2022/01/19 11:32:16;;;;;;;;;;;22.90;37.10;;;;;;6224174;27;22709;-47
2022/01/19 11:35:32;;;;;;;;;;;22.90;37.20;;;;;;6228545;27;19988;-45
2022/01/19 11:38:38;;;;;;;;;;;23.00;37.30;;;;;;6242717;27;19932;-47
2022/01/19 11:41:42;;;;;;;;;;;23.10;37.30;;;;;;6253302;27;20022;-49
2022/01/19 11:44:44;;;;;;;;;;;22.70;37.20;;;;;;6205429;27;20050;-49
2022/01/19 11:47:45;;;;;;;;;;;22.80;37.30;;;;;;6244632;27;19932;-45
2022/01/19 11:50:47;;;;;;;;;;;23.10;37.40;;;;;;6263617;27;20046;-50
2022/01/19 11:54:03;;;;;;;;;;;23.00;37.40;;;;;;6260543;27;20015;-45
2022/01/19 11:57:09;;;;;;;;;;;22.70;37.20;;;;;;6242635;27;20796;-46
2022/01/19 12:00:12;;;;;;;;;;;23.10;37.50;;;;;;6250801;27;19931;-48
2022/01/19 12:03:16;;;;;;;;;;;23.00;37.50;;;;;;6241862;27;19931;-45
2022/01/19 12:06:38;;;;;;;;;;;22.80;37.30;;;;;;6230687;27;20789;-45
2022/01/19 12:09:54;;;;;;;;;;;23.00;37.40;;;;;;6273616;27;20982;-48
2022/01/19 12:13:11;;;;;;;;;;;23.00;37.50;;;;;;6237204;27;19931;-55
2022/01/19 12:16:27;;;;;;;;;;;22.90;37.50;;;;;;6242854;27;21546;-50
2022/01/19 12:19:29;;;;;;;;;;;22.70;37.40;;;;;;6256208;27;19932;-51
2022/01/19 12:22:34;;;;;;;;;;;23.00;37.50;;;;;;6262462;27;20061;-47
2022/01/19 12:25:51;;;;;;;;;;;22.80;37.40;;;;;;6254879;27;19999;-45
2022/01/19 12:28:54;;;;;;;;;;;22.90;37.40;;;;;;6251658;27;19935;-48
2022/01/19 12:31:56;;;;;;;;;;;23.40;37.70;;;;;;6252506;27;25226;-44
2022/01/19 12:35:06;;;;;;;;;;;23.20;37.50;;;;;;6255254;27;19931;-45
2022/01/19 12:38:17;;;;;;;;;;;22.70;37.20;;;;;;6253165;27;20171;-50
2022/01/19 12:41:19;;;;;;;;;;;23.20;37.40;;;;;;6250724;27;19931;-49
2022/01/19 12:44:35;;;;;;;;;;;23.00;37.50;;;;;;6237284;27;19938;-50
2022/01/19 12:47:46;;;;;;;;;;;23.00;37.30;;;;;;6248225;27;21225;-45
2022/01/19 12:50:48;;;;;;;;;;;23.20;37.30;;;;;;6200762;27;19966;-46
2022/01/19 12:53:49;;;;;;;;;;;22.90;37.20;;;;;;6224151;27;19938;-47
2022/01/19 12:57:15;;;;;;;;;;;23.30;37.40;;;;;;6211039;27;19983;-46
2022/01/19 13:00:19;;;;;;;;;;;23.30;37.40;;;;;;6230032;27;19938;-43
2022/01/19 13:03:23;;;;;;;;;;;22.80;37.10;;;;;;6207625;27;19931;-44
2022/01/19 13:06:26;;;;;;;;;;;22.90;37.20;;;;;;6208450;27;19971;-42
2022/01/19 13:09:33;;;;;;;;;;;23.20;37.40;;;;;;6201045;27;19931;-44
2022/01/19 13:12:39;;;;;;;;;;;23.20;37.50;;;;;;6192965;27;20014;-45
2022/01/19 13:15:41;;;;;;;;;;;23.40;37.50;;;;;;6207774;27;21115;-43
2022/01/19 13:18:44;;;;;;;;;;;22.90;37.20;;;;;;6183794;27;21481;-44
2022/01/19 13:21:48;;;;;;;;;;;23.50;37.40;;;;;;6206368;27;19991;-45
2022/01/19 13:24:49;;;;;;;;;;;23.30;37.30;;;;;;6206993;27;21543;-43
2022/01/19 13:27:51;;;;;;;;;;;23.30;37.30;;;;;;6213452;27;19932;-42
2022/01/19 13:30:56;;;;;;;;;;;23.10;37.20;;;;;;6210918;27;20387;-43
2022/01/19 13:34:01;;;;;;;;;;;23.20;37.20;;;;;;6226961;27;19932;-44
2022/01/19 13:37:03;;;;;;;;;;;23.10;37.10;;;;;;6222685;27;21451;-45
2022/01/19 13:40:06;;;;;;;;;;;23.40;37.20;;;;;;6236618;27;20526;-44
2022/01/19 13:43:08;;;;;;;;;;;22.90;36.90;;;;;;6211452;27;19931;-44
2022/01/19 13:46:14;;;;;;;;;;;23.40;37.10;;;;;;6202663;27;19931;-45
2022/01/19 13:49:16;;;;;;;;;;;23.30;37.10;;;;;;6224038;27;21105;-49
2022/01/19 13:52:19;;;;;;;;;;;23.30;37.00;;;;;;6240736;27;22237;-51
2022/01/19 13:55:21;;;;;;;;;;;23.30;37.00;;;;;;6228355;27;19935;-48
2022/01/19 13:58:30;;;;;;;;;;;23.80;37.40;;;;;;6233198;27;19931;-43
2022/01/19 14:01:33;;;;;;;;;;;23.30;37.00;;;;;;6222402;27;19932;-45
2022/01/19 14:04:36;;;;;;;;;;;23.00;36.90;;;;;;6225517;27;21140;-42
2022/01/19 14:07:45;;;;;;;;;;;23.50;37.10;;;;;;6208144;27;19974;-44
2022/01/19 14:10:48;;;;;;;;;;;23.00;36.70;;;;;;6226527;27;21282;-45
2022/01/19 14:13:58;;;;;;;;;;;23.40;37.00;;;;;;6220924;27;19991;-43
2022/01/19 14:17:00;;;;;;;;;;;23.50;37.00;;;;;;6206167;27;20054;-43
2022/01/19 14:20:14;;;;;;;;;;;23.60;37.10;;;;;;6209654;27;19931;-42
2022/01/19 14:23:18;;;;;;;;;;;22.80;36.60;;;;;;6219913;27;19937;-44
2022/01/19 14:26:19;;;;;;;;;;;23.50;37.00;;;;;;6219951;27;19939;-47
2022/01/19 14:29:20;;;;;;;;;;;23.20;36.80;;;;;;6223408;27;21246;-43
2022/01/19 14:32:32;;;;;;;;;;;23.90;37.20;;;;;;6216703;27;20008;-46
2022/01/19 14:35:36;;;;;;;;;;;23.60;37.10;;;;;;6196042;27;20062;-46
2022/01/19 14:38:38;;;;;;;;;;;23.20;36.80;;;;;;6217716;27;20750;-44
2022/01/19 14:41:42;;;;;;;;;;;23.20;36.80;;;;;;6203317;27;20034;-44
2022/01/19 14:44:57;;;;;;;;;;;23.50;37.00;;;;;;6208473;27;19935;-43
2022/01/19 14:47:59;;;;;;;;;;;23.30;36.90;;;;;;6194454;27;19976;-47
2022/01/19 14:51:14;;;;;;;;;;;23.70;37.60;;;;;;6214244;27;21166;-44
2022/01/19 14:54:16;;;;;;;;;;;23.40;36.80;;;;;;6221324;27;19931;-43
2022/01/19 14:57:18;;;;;;;;;;;23.70;37.00;;;;;;6216010;27;20364;-41
2022/01/19 15:00:20;;;;;;;;;;;23.50;36.90;;;;;;6189540;27;23166;-44
2022/01/19 15:03:22;;;;;;;;;;;23.60;36.90;;;;;;6218985;27;21175;-44
2022/01/19 15:06:24;;;;;;;;;;;23.40;36.80;;;;;;6203672;27;19938;-42
2022/01/19 15:09:26;;;;;;;;;;;23.50;36.90;;;;;;6218989;27;20007;-47
2022/01/19 15:12:27;;;;;;;;;;;23.70;37.40;;;;;;6204424;28;20080;-40
2022/01/19 15:15:29;;;;;;;;;;;23.70;37.00;;;;;;6221365;27;19938;-41
2022/01/19 15:18:31;;;;;;;;;;;23.50;37.00;;;;;;6220544;27;20175;-42
2022/01/19 15:21:33;;;;;;;;;;;23.50;37.00;;;;;;6224253;27;20050;-42
2022/01/19 15:24:34;;;;;;;;;;;23.30;36.90;;;;;;6214537;27;19931;-43
2022/01/19 15:27:37;;;;;;;;;;;23.20;37.00;;;;;;6213996;27;22839;-42
2022/01/19 15:30:40;;;;;;;;;;;23.70;37.30;;;;;;6206446;27;19932;-42
2022/01/19 15:33:42;;;;;;;;;;;23.60;37.40;;;;;;6215035;27;19939;-43
2022/01/19 15:36:44;;;;;;;;;;;23.50;37.40;;;;;;6233174;27;19931;-41
2022/01/19 15:39:47;;;;;;;;;;;23.50;37.40;;;;;;6232158;27;19932;-41
2022/01/19 15:42:51;;;;;;;;;;;23.30;37.30;;;;;;6223340;27;21871;-39
2022/01/19 15:45:52;;;;;;;;;;;23.40;37.20;;;;;;6244328;27;19938;-44
2022/01/19 15:48:54;;;;;;;;;;;23.60;37.30;;;;;;6239046;27;19932;-41
2022/01/19 15:51:56;;;;;;;;;;;23.40;37.20;;;;;;6201866;27;20046;-41
2022/01/19 15:54:57;;;;;;;;;;;22.90;36.80;;;;;;6212154;27;19940;-41
2022/01/19 15:57:59;;;;;;;;;;;23.60;37.20;;;;;;6229563;27;19931;-42
2022/01/19 16:01:00;;;;;;;;;;;23.40;37.10;;;;;;6207289;27;19972;-41
2022/01/19 16:04:02;;;;;;;;;;;23.60;37.10;;;;;;6215621;27;19970;-42
2022/01/19 16:07:04;;;;;;;;;;;23.50;37.10;;;;;;6223223;27;22827;-40
2022/01/19 16:10:06;;;;;;;;;;;23.60;37.10;;;;;;6231789;27;19932;-39
2022/01/19 16:13:07;;;;;;;;;;;23.70;37.10;;;;;;6224752;27;21625;-43
2022/01/19 16:16:08;;;;;;;;;;;23.60;37.10;;;;;;6229618;27;19931;-43
2022/01/19 16:19:10;;;;;;;;;;;23.30;37.00;;;;;;6230492;27;21525;-42
2022/01/19 16:26:06;;;;;;;;;;;23.80;37.20;;;;;;6217523;27;19935;-45
2022/01/19 16:28:55;;;;;;;;;;;23.90;37.30;;;;;;6233984;27;21079;-41
2022/01/19 16:31:57;;;;;;;;;;;23.70;37.20;;;;;;6234167;27;20054;-45
2022/01/19 16:34:58;;;;;;;;;;;23.70;37.20;;;;;;6222829;27;19931;-47
2022/01/19 16:38:00;;;;;;;;;;;23.40;37.00;;;;;;6252179;27;19932;-46
2022/01/19 16:41:01;;;;;;;;;;;23.30;37.00;;;;;;6245591;27;19932;-44
2022/01/19 16:44:03;;;;;;;;;;;23.30;37.10;;;;;;6252185;27;20011;-46
2022/01/19 16:47:13;;;;;;;;;;;23.50;37.20;;;;;;6250321;27;19931;-48
2022/01/19 16:50:14;;;;;;;;;;;23.50;37.20;;;;;;6253009;27;19947;-46
2022/01/19 16:53:19;;;;;;;;;;;23.50;37.20;;;;;;6258119;27;19935;-41
2022/01/19 16:56:20;;;;;;;;;;;23.50;36.90;;;;;;6249611;27;19939;-43
2022/01/19 16:59:21;;;;;;;;;;;24.00;37.40;;;;;;6250945;27;20447;-43
2022/01/19 17:02:23;;;;;;;;;;;23.70;37.20;;;;;;6242134;27;19958;-41
2022/01/19 17:05:24;;;;;;;;;;;23.60;37.20;;;;;;6243429;27;19940;-48
2022/01/19 17:08:26;;;;;;;;;;;23.30;37.00;;;;;;6270237;27;19933;-41
2022/01/19 17:11:28;;;;;;;;;;;23.30;37.00;;;;;;6247794;27;20419;-40
2022/01/19 17:14:36;;;;;;;;;;;23.60;37.20;;;;;;6274291;27;19931;-42
2022/01/19 17:17:46;;;;;;;;;;;23.50;37.20;;;;;;6275384;27;20212;-39
2022/01/19 17:21:07;;;;;;;;;;;23.40;37.30;;;;;;6260341;27;19936;-39
2022/01/19 17:24:09;;;;;;;;;;;23.20;37.20;;;;;;6284186;27;19983;-42
2022/01/19 17:27:11;;;;;;;;;;;23.00;37.20;;;;;;6293676;27;19981;-43
2022/01/19 17:30:12;;;;;;;;;;;23.20;37.40;;;;;;6280127;27;20061;-41
2022/01/19 17:33:13;;;;;;;;;;;23.20;37.40;;;;;;6289963;27;19931;-45
2022/01/19 17:36:15;;;;;;;;;;;23.20;37.40;;;;;;6306414;27;20510;-44
2022/01/19 17:39:18;;;;;;;;;;;23.20;37.40;;;;;;6298480;27;19937;-47
2022/01/19 17:42:22;;;;;;;;;;;23.40;37.50;;;;;;6283108;27;20015;-46
2022/01/19 17:45:30;;;;;;;;;;;23.10;37.40;;;;;;6305674;27;20027;-44
2022/01/19 17:48:51;;;;;;;;;;;23.80;38.50;;;;;;6301049;27;20258;-42
2022/01/19 17:51:55;;;;;;;;;;;23.00;37.50;;;;;;6302970;27;19931;-47
2022/01/19 17:54:58;;;;;;;;;;;23.20;37.70;;;;;;6306477;27;20061;-46
2022/01/19 17:57:59;;;;;;;;;;;23.00;37.60;;;;;;6316003;27;20664;-45
2022/01/19 18:01:01;;;;;;;;;;;23.40;37.80;;;;;;6313679;27;19931;-42
2022/01/19 18:04:03;;;;;;;;;;;23.00;37.70;;;;;;6294750;27;20016;-42
2022/01/19 18:07:04;;;;;;;;;;;22.90;37.60;;;;;;6281723;27;20897;-46
2022/01/19 18:10:06;;;;;;;;;;;22.80;37.60;;;;;;6311433;27;19938;-40
2022/01/19 18:13:08;;;;;;;;;;;23.30;37.90;;;;;;6316051;27;19963;-40
2022/01/19 18:16:11;;;;;;;;;;;23.20;37.90;;;;;;6310054;27;19939;-41
2022/01/19 18:19:12;;;;;;;;;;;23.20;37.90;;;;;;6317563;27;20066;-42
2022/01/19 18:22:13;;;;;;;;;;;23.00;37.90;;;;;;6315747;27;20066;-43
2022/01/19 18:25:16;;;;;;;;;;;22.70;37.70;;;;;;6318181;28;20815;-44
2022/01/19 18:28:17;;;;;;;;;;;22.80;37.80;;;;;;6324239;28;20001;-41
2022/01/19 18:31:19;;;;;;;;;;;23.00;38.00;;;;;;6317605;27;20468;-43
2022/01/19 18:34:20;;;;;;;;;;;23.30;38.20;;;;;;6290752;27;19932;-42
2022/01/19 18:37:22;;;;;;;;;;;22.90;38.20;;;;;;6313341;27;20026;-40
2022/01/19 18:40:27;;;;;;;;;;;22.70;38.00;;;;;;6315705;27;21691;-43
2022/01/19 18:43:30;;;;;;;;;;;23.10;38.30;;;;;;6317343;28;19935;-42
2022/01/19 18:46:31;;;;;;;;;;;22.80;38.10;;;;;;6323731;28;19938;-44
2022/01/19 18:49:33;;;;;;;;;;;22.90;38.20;;;;;;6323725;28;20920;-43
2022/01/19 18:52:40;;;;;;;;;;;22.50;38.10;;;;;;6321912;27;19970;-43
2022/01/19 18:55:43;;;;;;;;;;;22.70;38.20;;;;;;6311313;28;19932;-45
2022/01/19 18:58:45;;;;;;;;;;;22.60;38.20;;;;;;6320438;27;19961;-46
2022/01/19 19:01:46;;;;;;;;;;;22.50;38.30;;;;;;6322436;27;19936;-45